Time;durP1;ratioP1;P1;durP2;ratioP2;P2;SDS_P1;SDS_P2;PMS_P1;PMS_P2;Temp;Humidity;BMP_temperature;BMP_pressure;BME280_temperature;BME280_humidity;BME280_pressure;Samples;Min_cycle;Max_cycle;Signal;HPM_P1;HPM_P2
2022/04/26 03:37:05;;;;;;;16.55;6.80;;;9.00;99.90;;;;;;4990879;28;20070;-90
2022/04/26 03:39:34;;;;;;;14.65;7.38;;;8.90;99.90;;;;;;4990881;28;20038;-91
2022/04/26 03:42:02;;;;;;;16.23;7.38;;;8.90;99.90;;;;;;4990283;28;20392;-90
2022/04/26 03:44:28;;;;;;;13.10;7.03;;;8.90;99.90;;;;;;4990879;28;20149;-90
2022/04/26 03:46:54;;;;;;;13.88;6.15;;;8.90;99.90;;;;;;4990676;28;20105;-90
2022/04/26 03:49:21;;;;;;;14.32;6.35;;;8.90;99.90;;;;;;4990764;28;20125;-91
2022/04/26 03:51:46;;;;;;;14.35;6.53;;;8.90;99.90;;;;;;4990229;28;20296;-90
2022/04/26 03:54:12;;;;;;;12.77;6.20;;;8.90;99.90;;;;;;4990662;28;20121;-90
2022/04/26 03:56:37;;;;;;;17.95;7.00;;;8.90;99.90;;;;;;4991061;28;20124;-91
2022/04/26 03:59:03;;;;;;;15.55;7.22;;;8.90;99.90;;;;;;4990688;28;20042;-90
2022/04/26 04:01:28;;;;;;;15.98;7.22;;;8.90;99.90;;;;;;4990061;28;20483;-90
2022/04/26 04:03:54;;;;;;;15.68;6.88;;;8.90;99.90;;;;;;4990493;28;20085;-90
2022/04/26 04:06:19;;;;;;;14.95;7.32;;;8.90;99.90;;;;;;4990546;28;20101;-90
2022/04/26 04:08:45;;;;;;;16.50;7.30;;;8.80;99.90;;;;;;4993102;28;20089;-90
2022/04/26 04:11:11;;;;;;;19.83;7.55;;;8.80;99.90;;;;;;4993449;28;20466;-89
2022/04/26 04:13:36;;;;;;;15.13;6.93;;;8.80;99.90;;;;;;4994087;28;20134;-90
2022/04/26 04:16:02;;;;;;;15.07;7.28;;;8.80;99.90;;;;;;4994251;28;20042;-90
2022/04/26 04:21:11;;;;;;;15.30;7.03;;;8.80;99.90;;;;;;4993673;28;20058;-90
2022/04/26 04:23:40;;;;;;;15.23;8.27;;;8.80;99.90;;;;;;4994009;28;20046;-90
2022/04/26 04:26:07;;;;;;;14.23;7.03;;;8.80;99.90;;;;;;4993802;28;20811;-90
2022/04/26 04:28:34;;;;;;;14.88;7.40;;;8.80;99.90;;;;;;4993996;28;20042;-90
2022/04/26 04:31:00;;;;;;;14.18;7.47;;;8.80;99.90;;;;;;4993829;28;20062;-90
2022/04/26 04:33:26;;;;;;;15.48;8.13;;;8.80;99.90;;;;;;4993721;28;20049;-90
2022/04/26 04:35:52;;;;;;;12.77;7.32;;;8.80;99.90;;;;;;4993651;28;20417;-91
2022/04/26 04:38:17;;;;;;;14.25;6.80;;;8.80;99.90;;;;;;4993908;28;20455;-90
2022/04/26 04:40:43;;;;;;;12.02;7.47;;;8.80;99.90;;;;;;4993851;28;20134;-90
2022/04/26 04:43:10;;;;;;;19.73;7.78;;;8.80;99.90;;;;;;4993848;28;20758;-89
2022/04/26 04:45:36;;;;;;;16.27;7.65;;;8.80;99.90;;;;;;4993631;28;20048;-89
2022/04/26 04:48:01;;;;;;;17.17;7.70;;;8.80;99.90;;;;;;4992381;28;20042;-89
2022/04/26 04:50:27;;;;;;;16.77;7.63;;;8.80;99.90;;;;;;4993389;28;20046;-91
2022/04/26 04:52:53;;;;;;;16.52;7.25;;;8.80;99.90;;;;;;4992811;28;20049;-91
2022/04/26 04:55:18;;;;;;;21.85;8.15;;;8.80;99.90;;;;;;4993476;28;20034;-91
2022/04/26 04:57:44;;;;;;;14.48;7.47;;;8.80;99.90;;;;;;4993571;28;20038;-91
2022/04/26 05:00:10;;;;;;;18.80;8.00;;;8.80;99.90;;;;;;4992880;28;20077;-90
2022/04/26 05:02:35;;;;;;;19.38;8.77;;;8.80;99.90;;;;;;4993100;28;20132;-90
2022/04/26 05:05:01;;;;;;;15.98;8.00;;;8.80;99.90;;;;;;4993238;28;20039;-91
2022/04/26 05:07:29;;;;;;;17.15;7.72;;;8.80;99.90;;;;;;4993184;28;20052;-90
2022/04/26 05:09:55;;;;;;;21.98;7.80;;;8.80;99.90;;;;;;4992561;28;20038;-90
2022/04/26 05:12:20;;;;;;;14.18;6.28;;;8.90;99.90;;;;;;4992938;28;20034;-90
2022/04/26 05:14:46;;;;;;;14.77;6.70;;;8.90;99.90;;;;;;5009427;28;20042;-90
2022/04/26 05:17:11;;;;;;;18.27;7.80;;;8.90;99.90;;;;;;4992729;28;20566;-90
2022/04/26 05:19:37;;;;;;;19.63;7.45;;;8.90;99.90;;;;;;4992021;28;20408;-90
2022/04/26 05:22:08;;;;;;;15.68;6.38;;;8.90;99.90;;;;;;4992080;28;20078;-90
2022/04/26 05:25:10;;;;;;;17.77;6.75;;;8.90;99.90;;;;;;4992642;28;20045;-90
2022/04/26 05:27:34;;;;;;;17.23;6.90;;;9.00;99.90;;;;;;4990856;28;20546;-91
2022/04/26 05:29:59;;;;;;;16.70;6.85;;;9.00;99.90;;;;;;4992441;28;20084;-91
2022/04/26 05:32:27;;;;;;;15.88;7.13;;;9.00;99.90;;;;;;4992321;28;20034;-90
2022/04/26 05:35:11;;;;;;;15.77;6.95;;;9.00;99.90;;;;;;4992812;28;20042;-91
2022/04/26 05:37:37;;;;;;;19.75;7.13;;;9.10;99.90;;;;;;4992431;28;20088;-89
2022/04/26 05:40:03;;;;;;;16.67;6.40;;;9.10;99.90;;;;;;4991754;28;20080;-90
2022/04/26 05:42:30;;;;;;;15.80;6.38;;;9.20;99.90;;;;;;4992209;28;20121;-90
2022/04/26 05:44:58;;;;;;;16.35;5.93;;;9.20;99.90;;;;;;5007210;28;20064;-90
2022/04/26 05:47:24;;;;;;;15.35;6.53;;;9.20;99.90;;;;;;4995593;28;20038;-90
2022/04/26 05:49:50;;;;;;;14.93;6.50;;;9.30;99.90;;;;;;5011308;28;20064;-90
2022/04/26 05:52:16;;;;;;;21.73;6.25;;;9.30;99.90;;;;;;4995533;28;20030;-90
2022/04/26 05:54:42;;;;;;;13.88;5.80;;;9.30;99.90;;;;;;5011155;28;20073;-90
2022/04/26 05:57:07;;;;;;;15.30;5.97;;;9.30;99.90;;;;;;5011704;28;20123;-90
2022/04/26 05:59:34;;;;;;;22.67;6.38;;;9.40;99.90;;;;;;5011992;28;20049;-90
2022/04/26 06:02:00;;;;;;;19.70;6.18;;;9.40;99.90;;;;;;5011450;28;20399;-90
2022/04/26 06:04:27;;;;;;;16.20;6.13;;;9.40;99.90;;;;;;5011462;28;20048;-90
2022/04/26 06:06:52;;;;;;;19.58;6.35;;;9.50;99.90;;;;;;5010633;28;20499;-90
2022/04/26 06:09:19;;;;;;;18.75;6.13;;;9.50;99.90;;;;;;5011077;28;20046;-90
2022/04/26 06:11:45;;;;;;;18.85;6.03;;;9.50;99.90;;;;;;4995064;28;20154;-90
2022/04/26 06:14:11;;;;;;;15.95;6.53;;;9.50;99.90;;;;;;5011343;28;20121;-90
2022/04/26 06:16:36;;;;;;;16.42;6.38;;;9.60;99.90;;;;;;4995048;28;20088;-91
2022/04/26 06:19:02;;;;;;;14.23;6.13;;;9.60;99.90;;;;;;4994740;28;20038;-91
2022/04/26 06:21:27;;;;;;;16.35;6.53;;;9.60;99.90;;;;;;4994443;28;20030;-91
2022/04/26 06:23:53;;;;;;;17.35;5.85;;;9.70;99.90;;;;;;5010883;28;20455;-91
2022/04/26 06:26:19;;;;;;;13.80;5.93;;;9.70;99.90;;;;;;5011355;28;20038;-90
2022/04/26 06:28:44;;;;;;;13.48;5.97;;;9.70;99.90;;;;;;4995144;28;20038;-91
2022/04/26 06:31:10;;;;;;;21.58;6.97;;;9.70;99.90;;;;;;5010485;28;20049;-91
2022/04/26 06:33:36;;;;;;;15.10;6.13;;;9.80;99.90;;;;;;5011298;28;20590;-90
2022/04/26 06:36:03;;;;;;;16.38;6.53;;;9.80;99.90;;;;;;5010809;28;20095;-91
2022/04/26 06:38:28;;;;;;;12.95;6.43;;;9.90;99.90;;;;;;5011016;28;20065;-90
2022/04/26 06:40:55;;;;;;;17.13;7.60;;;10.00;99.90;;;;;;4991376;28;20073;-90
2022/04/26 06:43:20;;;;;;;15.98;6.43;;;10.10;99.90;;;;;;4975239;28;20049;-91
2022/04/26 06:45:46;;;;;;;15.68;6.00;;;10.20;99.90;;;;;;4973918;28;20034;-90
2022/04/26 06:48:13;;;;;;;16.30;6.38;;;10.40;99.90;;;;;;4990043;28;20048;-90
2022/04/26 06:50:40;;;;;;;14.35;5.82;;;10.50;99.90;;;;;;4990575;28;20030;-91
2022/04/26 06:53:07;;;;;;;13.98;6.65;;;10.60;99.90;;;;;;4974166;28;20042;-91
2022/04/26 06:55:33;;;;;;;15.77;6.40;;;10.80;99.90;;;;;;4990961;28;20630;-91
2022/04/26 06:57:58;;;;;;;16.27;6.18;;;10.90;99.90;;;;;;4990898;28;20045;-90
2022/04/26 07:00:24;;;;;;;14.20;5.75;;;11.00;99.90;;;;;;4990629;28;20512;-90
2022/04/26 07:02:50;;;;;;;14.95;5.47;;;11.00;99.90;;;;;;4974981;28;20046;-91
2022/04/26 07:05:16;;;;;;;12.85;6.15;;;11.10;99.90;;;;;;4990677;28;20396;-90
2022/04/26 07:07:42;;;;;;;13.85;5.47;;;11.10;99.90;;;;;;4992171;28;20042;-90
2022/04/26 07:10:08;;;;;;;14.27;5.65;;;11.10;99.90;;;;;;4974143;28;20629;-90
2022/04/26 07:12:34;;;;;;;15.55;5.78;;;11.10;99.90;;;;;;4990606;28;20034;-90
2022/04/26 07:15:00;;;;;;;14.98;5.28;;;11.10;99.90;;;;;;4975656;28;20034;-90
2022/04/26 07:17:25;;;;;;;15.50;5.53;;;11.10;99.90;;;;;;4982353;28;20484;-90
2022/04/26 07:19:51;;;;;;;13.18;5.88;;;11.20;99.90;;;;;;5001025;28;20426;-90
2022/04/26 07:22:17;;;;;;;13.85;5.88;;;11.20;99.90;;;;;;4996228;28;20046;-90
2022/04/26 07:24:44;;;;;;;14.93;5.90;;;11.20;99.90;;;;;;4984748;28;20038;-90
2022/04/26 07:27:10;;;;;;;13.85;5.88;;;11.20;99.90;;;;;;5004662;28;20053;-91
2022/04/26 07:29:36;;;;;;;13.35;5.80;;;11.30;99.90;;;;;;4995808;28;20488;-90
2022/04/26 07:32:03;;;;;;;15.13;5.82;;;11.30;99.90;;;;;;4990203;28;20045;-90
2022/04/26 07:34:29;;;;;;;15.40;6.15;;;11.30;99.90;;;;;;4990504;28;20084;-91
2022/04/26 07:37:04;;;;;;;14.30;5.90;;;11.30;99.90;;;;;;4974312;28;20038;-91
2022/04/26 07:39:32;;;;;;;10.93;5.35;;;11.40;99.90;;;;;;4990783;28;20041;-90
2022/04/26 07:41:57;;;;;;;24.42;6.07;;;11.40;99.90;;;;;;4990520;28;20046;-90
2022/04/26 07:44:23;;;;;;;12.57;5.90;;;11.40;99.90;;;;;;4994526;28;20579;-91
2022/04/26 07:46:50;;;;;;;10.57;5.50;;;11.40;99.90;;;;;;4994071;28;20064;-91
2022/04/26 07:49:17;;;;;;;15.50;5.38;;;11.40;99.90;;;;;;4994421;28;20042;-90
2022/04/26 07:51:43;;;;;;;13.63;5.40;;;11.50;99.90;;;;;;4993902;28;20500;-90
2022/04/26 07:54:10;;;;;;;13.68;5.22;;;11.50;99.90;;;;;;4995637;28;20349;-91
2022/04/26 07:56:35;;;;;;;15.15;5.20;;;11.50;99.90;;;;;;4984281;28;20053;-90
2022/04/26 07:59:03;;;;;;;15.98;5.25;;;11.60;99.90;;;;;;5005773;28;20038;-89
2022/04/26 08:01:32;;;;;;;13.88;5.70;;;11.60;99.90;;;;;;4992337;28;20050;-90
2022/04/26 08:03:58;;;;;;;12.18;4.53;;;11.70;99.90;;;;;;4995028;28;20046;-90
2022/04/26 08:06:24;;;;;;;12.60;6.13;;;11.70;99.90;;;;;;4996940;28;20106;-89
2022/04/26 08:08:49;;;;;;;17.15;7.80;;;11.80;99.90;;;;;;4997889;28;20092;-90
2022/04/26 08:11:15;;;;;;;15.57;6.47;;;11.80;99.90;;;;;;4993924;28;20047;-91
2022/04/26 08:13:41;;;;;;;12.23;4.65;;;11.80;99.90;;;;;;4993813;28;20038;-90
2022/04/26 08:16:08;;;;;;;13.45;4.43;;;11.80;99.90;;;;;;4993643;28;20034;-90
2022/04/26 08:18:34;;;;;;;11.80;4.63;;;11.80;99.90;;;;;;4977797;28;20042;-91
2022/04/26 08:21:00;;;;;;;12.38;5.60;;;11.90;99.90;;;;;;4977740;28;20483;-90
2022/04/26 08:23:26;;;;;;;13.77;6.22;;;11.90;99.90;;;;;;4993607;28;20049;-90
2022/04/26 08:28:35;;;;;;;11.35;4.20;;;11.90;99.90;;;;;;4993793;28;20145;-90
2022/04/26 08:31:01;;;;;;;10.90;4.15;;;12.00;99.90;;;;;;4993076;28;20125;-90
2022/04/26 08:33:27;;;;;;;11.98;4.35;;;12.00;99.90;;;;;;4993725;28;20034;-89
2022/04/26 08:35:54;;;;;;;12.18;4.03;;;12.00;99.90;;;;;;4993508;28;20076;-90
2022/04/26 08:38:19;;;;;;;13.25;4.50;;;12.00;99.90;;;;;;4985452;28;20042;-90
2022/04/26 08:40:45;;;;;;;10.10;3.50;;;12.10;99.90;;;;;;4984866;28;20042;-90
2022/04/26 08:43:12;;;;;;;11.73;4.72;;;12.10;99.90;;;;;;4982433;28;20085;-90
2022/04/26 08:45:41;;;;;;;10.65;3.78;;;12.30;99.90;;;;;;4981788;28;20420;-90
2022/04/26 08:51:03;;;;;;;13.32;4.57;;;12.40;99.90;;;;;;4982694;28;20058;-91
2022/04/26 08:53:30;;;;;;;9.32;3.38;;;12.40;99.90;;;;;;4975192;28;20058;-91
2022/04/26 08:56:01;;;;;;;11.57;3.70;;;12.50;99.90;;;;;;4973596;28;20118;-90
2022/04/26 08:58:32;;;;;;;11.02;3.45;;;12.50;99.90;;;;;;4974102;28;20105;-91
2022/04/26 09:01:08;;;;;;;9.70;3.38;;;12.60;99.90;;;;;;4957218;28;20047;-90
2022/04/26 09:03:56;;;;;;;10.20;3.75;;;12.60;99.90;;;;;;4973575;28;20444;-90
2022/04/26 09:06:33;;;;;;;11.75;4.03;;;12.70;99.90;;;;;;4973375;28;20039;-90
2022/04/26 09:09:17;;;;;;;10.05;3.70;;;12.70;99.90;;;;;;4973761;28;20051;-91
2022/04/26 09:11:43;;;;;;;13.73;4.20;;;12.80;99.90;;;;;;4972957;28;20187;-91
2022/04/26 09:14:35;;;;;;;10.55;4.15;;;12.80;99.90;;;;;;4986392;28;20038;-91
2022/04/26 09:17:09;;;;;;;11.18;4.55;;;12.90;99.90;;;;;;5025560;28;20045;-90
2022/04/26 09:19:49;;;;;;;10.27;3.75;;;13.00;99.90;;;;;;5008814;28;20034;-91
2022/04/26 09:22:20;;;;;;;14.23;4.55;;;13.00;99.90;;;;;;5008841;28;20069;-90
2022/04/26 09:25:04;;;;;;;12.77;3.63;;;13.10;99.90;;;;;;5025843;28;20038;-91
2022/04/26 09:27:30;;;;;;;24.98;3.90;;;13.10;99.90;;;;;;5008957;28;20045;-90
2022/04/26 09:29:56;;;;;;;9.57;3.60;;;13.20;99.90;;;;;;5024984;28;20100;-90
2022/04/26 09:32:25;;;;;;;11.75;3.40;;;13.30;99.90;;;;;;4992548;28;20511;-90
2022/04/26 09:34:51;;;;;;;9.63;3.85;;;13.40;99.90;;;;;;5025131;28;20118;-90
2022/04/26 09:37:17;;;;;;;12.07;3.30;;;13.50;99.90;;;;;;4991108;28;20050;-90
2022/04/26 09:40:05;;;;;;;8.95;3.20;;;13.60;99.70;;;;;;4992013;28;20407;-90
2022/04/26 09:42:31;;;;;;;10.60;3.70;;;13.70;99.40;;;;;;4991784;28;20081;-90
2022/04/26 09:45:10;;;;;;;9.27;3.50;;;13.70;99.30;;;;;;4976219;28;20046;-90
2022/04/26 09:47:41;;;;;;;11.50;3.30;;;13.80;98.20;;;;;;4992138;28;20034;-90
2022/04/26 09:50:10;;;;;;;10.20;4.20;;;13.90;98.50;;;;;;4991657;28;20118;-90
2022/04/26 09:52:36;;;;;;;11.63;4.32;;;13.90;98.20;;;;;;4992218;28;20498;-90
2022/04/26 09:55:03;;;;;;;10.07;3.35;;;14.00;97.50;;;;;;5002212;28;20557;-89
2022/04/26 09:57:32;;;;;;;9.40;3.33;;;14.10;97.40;;;;;;5008970;28;20042;-90
2022/04/26 09:59:59;;;;;;;10.10;3.50;;;14.20;97.30;;;;;;4999427;28;20042;-90
2022/04/26 10:02:30;;;;;;;10.20;3.78;;;14.40;97.00;;;;;;4995360;28;20046;-91
2022/04/26 10:05:00;;;;;;;9.88;3.67;;;14.50;96.50;;;;;;4991313;28;20084;-91
2022/04/26 10:07:31;;;;;;;13.15;4.38;;;14.60;96.40;;;;;;4975235;28;20050;-91
2022/04/26 10:09:57;;;;;;;10.80;4.28;;;14.70;96.00;;;;;;4974747;28;20042;-90
2022/04/26 10:12:24;;;;;;;13.70;3.95;;;14.70;94.90;;;;;;5023522;28;20043;-91
2022/04/26 10:14:50;;;;;;;8.52;3.53;;;14.90;94.40;;;;;;5024594;28;20045;-90
2022/04/26 10:17:19;;;;;;;11.55;3.45;;;15.00;93.20;;;;;;5024354;28;20038;-91
2022/04/26 10:19:45;;;;;;;13.93;3.78;;;15.10;93.10;;;;;;5024348;28;20129;-91
2022/04/26 10:22:14;;;;;;;12.93;4.20;;;15.10;92.90;;;;;;4975057;28;20134;-91
2022/04/26 10:25:00;;;;;;;12.05;3.53;;;15.20;92.70;;;;;;5007762;28;20042;-90
2022/04/26 10:27:26;;;;;;;11.73;3.95;;;15.40;93.10;;;;;;4991253;28;20046;-91
2022/04/26 10:29:52;;;;;;;9.40;4.07;;;15.60;93.10;;;;;;5007432;28;20093;-91
2022/04/26 10:32:32;;;;;;;10.48;4.00;;;15.70;92.30;;;;;;4980943;28;20038;-90
2022/04/26 10:35:23;;;;;;;8.77;3.70;;;15.80;91.80;;;;;;4999631;28;20034;-91
2022/04/26 10:38:12;;;;;;;12.50;4.75;;;15.90;90.00;;;;;;4975034;28;20038;-90
2022/04/26 10:41:00;;;;;;;11.20;4.10;;;15.80;88.10;;;;;;4991269;28;20092;-90
2022/04/26 10:43:26;;;;;;;11.07;3.90;;;15.80;86.80;;;;;;4974590;28;20195;-90
2022/04/26 10:46:11;;;;;;;10.38;3.70;;;15.80;86.90;;;;;;4974509;28;20568;-90
2022/04/26 10:48:37;;;;;;;8.60;3.83;;;15.90;87.30;;;;;;4991090;28;20046;-90
2022/04/26 10:51:34;;;;;;;11.10;3.67;;;16.10;87.20;;;;;;4974590;28;20049;-90
2022/04/26 10:54:03;;;;;;;9.88;3.70;;;16.40;89.30;;;;;;4990771;28;20046;-91
2022/04/26 10:56:33;;;;;;;9.95;3.70;;;16.50;86.70;;;;;;4990681;28;20042;-91
2022/04/26 10:58:59;;;;;;;10.10;3.45;;;16.60;84.10;;;;;;5007215;28;20042;-91
2022/04/26 11:01:25;;;;;;;8.82;3.40;;;16.70;83.40;;;;;;5023477;28;20555;-91
2022/04/26 11:03:52;;;;;;;9.00;3.53;;;16.70;81.50;;;;;;5023836;28;20042;-91
2022/04/26 11:06:38;;;;;;;9.52;3.67;;;16.90;81.50;;;;;;4990797;28;20733;-91
2022/04/26 11:09:15;;;;;;;9.48;3.42;;;17.10;77.90;;;;;;4990732;28;20093;-92
2022/04/26 11:11:55;;;;;;;11.27;3.90;;;17.30;79.40;;;;;;4973882;28;20042;-91
2022/04/26 11:14:21;;;;;;;9.40;3.85;;;17.50;77.30;;;;;;4992062;28;20042;-91
2022/04/26 11:17:02;;;;;;;10.00;3.80;;;17.60;77.80;;;;;;5006495;28;20121;-90
2022/04/26 11:19:33;;;;;;;10.73;3.70;;;17.80;75.30;;;;;;4990740;28;20053;-91
2022/04/26 11:22:13;;;;;;;11.40;5.57;;;18.00;72.00;;;;;;4989661;28;20080;-91
2022/04/26 11:30:09;;;;;;;11.52;3.90;;;18.40;67.90;;;;;;5009919;28;20054;-91
2022/04/26 11:32:43;;;;;;;11.43;3.58;;;18.50;66.50;;;;;;5010141;28;20042;-91
2022/04/26 11:35:09;;;;;;;11.00;3.33;;;18.50;65.60;;;;;;5006805;28;20041;-91
2022/04/26 11:38:02;;;;;;;13.68;5.43;;;18.60;65.70;;;;;;5006794;28;20091;-91
2022/04/26 11:40:32;;;;;;;18.13;4.40;;;18.80;68.40;;;;;;4992004;28;20092;-91
2022/04/26 11:43:05;;;;;;;8.85;3.40;;;18.80;66.80;;;;;;4974034;28;20538;-91
2022/04/26 11:45:33;;;;;;;9.95;3.45;;;19.00;64.40;;;;;;4990490;28;20042;-91
2022/04/26 11:47:59;;;;;;;8.30;3.17;;;19.10;62.80;;;;;;4990957;28;20084;-91
2022/04/26 11:50:27;;;;;;;9.43;3.15;;;19.20;59.00;;;;;;4974103;28;20039;-91
2022/04/26 11:53:07;;;;;;;8.45;3.40;;;19.10;59.60;;;;;;4974346;28;20050;-91
2022/04/26 11:55:41;;;;;;;8.98;3.03;;;19.20;61.60;;;;;;5006622;28;20037;-91
2022/04/26 11:58:16;;;;;;;8.10;3.05;;;19.20;60.90;;;;;;4990371;28;20100;-91
2022/04/26 12:01:00;;;;;;;10.32;3.30;;;19.20;61.40;;;;;;5023260;28;20058;-91
2022/04/26 12:03:41;;;;;;;9.75;3.33;;;19.20;61.60;;;;;;4973806;28;20046;-91
2022/04/26 12:06:11;;;;;;;8.02;3.33;;;19.10;60.20;;;;;;5022874;28;20097;-91
2022/04/26 12:08:45;;;;;;;7.20;2.90;;;19.20;60.10;;;;;;4973874;28;20100;-91
2022/04/26 12:11:30;;;;;;;8.68;3.05;;;19.30;58.20;;;;;;4973100;28;20050;-91
2022/04/26 12:14:14;;;;;;;7.57;3.03;;;19.40;58.20;;;;;;5023072;28;20116;-91
2022/04/26 12:16:43;;;;;;;7.93;3.15;;;19.40;58.40;;;;;;4990604;28;20038;-91
2022/04/26 12:19:10;;;;;;;8.82;3.05;;;19.50;57.90;;;;;;4974227;28;20048;-91
2022/04/26 12:21:46;;;;;;;6.10;2.70;;;19.60;57.20;;;;;;5022821;28;20093;-91
2022/04/26 12:24:15;;;;;;;7.57;2.97;;;19.80;56.00;;;;;;5006264;28;20045;-92
2022/04/26 12:26:54;;;;;;;9.13;3.35;;;19.90;55.30;;;;;;5006250;28;20519;-92
2022/04/26 12:29:24;;;;;;;9.13;3.05;;;19.90;54.80;;;;;;4976135;28;20503;-91
2022/04/26 12:31:50;;;;;;;10.98;3.55;;;19.80;55.70;;;;;;5026531;28;20039;-91
2022/04/26 12:34:24;;;;;;;10.27;3.10;;;19.80;55.70;;;;;;4977560;28;20048;-91
2022/04/26 12:37:03;;;;;;;9.85;3.42;;;19.70;55.10;;;;;;5026566;28;20496;-91
2022/04/26 12:39:43;;;;;;;7.50;2.97;;;19.90;56.30;;;;;;4977355;28;20467;-91
2022/04/26 12:42:17;;;;;;;7.82;3.03;;;20.10;53.90;;;;;;4976798;28;20042;-92
2022/04/26 12:44:50;;;;;;;7.72;3.00;;;20.10;52.70;;;;;;4993489;28;20500;-91
2022/04/26 12:52:51;;;;;;;9.25;3.28;;;20.30;53.50;;;;;;4993334;28;20042;-92
2022/04/26 12:55:41;;;;;;;6.60;2.80;;;20.40;53.80;;;;;;4976743;28;20042;-91
2022/04/26 12:58:09;;;;;;;8.05;2.88;;;20.40;52.00;;;;;;4969706;28;20046;-92
2022/04/26 13:00:46;;;;;;;7.75;2.70;;;20.20;51.80;;;;;;4977051;28;20065;-92
2022/04/26 13:03:13;;;;;;;7.25;2.60;;;20.10;51.60;;;;;;5009078;28;20045;-91
2022/04/26 13:05:45;;;;;;;8.13;2.72;;;20.10;51.80;;;;;;4976733;28;20046;-91
2022/04/26 13:08:12;;;;;;;7.67;2.77;;;20.30;52.50;;;;;;5025897;28;20141;-91
2022/04/26 13:10:40;;;;;;;8.02;3.20;;;20.70;51.40;;;;;;4992278;28;20052;-92
2022/04/26 13:13:06;;;;;;;13.35;6.53;;;20.90;51.50;;;;;;5025791;28;20655;-91
2022/04/26 13:15:32;;;;;;;6.95;2.83;;;21.30;51.30;;;;;;5011563;28;20074;-92
2022/04/26 13:17:59;;;;;;;6.57;2.50;;;21.40;51.20;;;;;;5000892;28;20060;-91
2022/04/26 13:20:25;;;;;;;7.57;2.50;;;21.40;50.20;;;;;;4997382;28;20569;-92
2022/04/26 13:22:51;;;;;;;6.57;2.65;;;21.20;49.20;;;;;;5000962;28;20102;-92
2022/04/26 13:25:16;;;;;;;8.50;2.80;;;21.20;49.00;;;;;;5011039;28;20395;-92
2022/04/26 13:27:42;;;;;;;7.32;2.58;;;21.30;49.70;;;;;;5006729;28;20129;-91
2022/04/26 13:30:15;;;;;;;8.10;2.65;;;21.30;48.70;;;;;;4994293;28;20066;-91
2022/04/26 13:32:41;;;;;;;9.85;2.65;;;21.50;48.50;;;;;;4995216;28;20110;-92
2022/04/26 13:35:07;;;;;;;7.30;2.40;;;21.60;47.90;;;;;;4998348;28;20065;-91
2022/04/26 13:37:34;;;;;;;7.70;2.78;;;21.80;48.40;;;;;;4983481;28;20480;-92
2022/04/26 13:40:01;;;;;;;8.27;2.50;;;21.60;47.60;;;;;;4980887;28;20066;-91
2022/04/26 13:42:30;;;;;;;9.00;2.67;;;21.40;48.10;;;;;;4978328;28;20035;-91
2022/04/26 13:44:55;;;;;;;8.35;2.80;;;21.20;47.40;;;;;;5000197;28;20538;-91
2022/04/26 13:47:22;;;;;;;8.27;2.97;;;21.20;47.40;;;;;;4981807;28;20046;-91
2022/04/26 13:49:48;;;;;;;6.68;2.50;;;21.30;46.60;;;;;;5001269;28;20282;-91
2022/04/26 13:52:14;;;;;;;6.53;2.25;;;21.60;47.50;;;;;;4991290;28;20093;-91
2022/04/26 13:54:42;;;;;;;8.15;2.70;;;21.80;47.30;;;;;;4975966;28;20038;-91
2022/04/26 13:57:08;;;;;;;7.53;2.63;;;22.00;47.10;;;;;;4991508;28;20423;-91
2022/04/26 13:59:33;;;;;;;7.30;2.40;;;22.00;46.40;;;;;;4992279;28;20038;-91
2022/04/26 14:01:59;;;;;;;8.05;2.63;;;22.00;46.70;;;;;;4975474;28;20041;-91
2022/04/26 14:04:25;;;;;;;6.65;2.30;;;22.20;46.80;;;;;;4976023;28;20074;-92
2022/04/26 14:06:50;;;;;;;7.40;2.35;;;22.30;46.20;;;;;;4991964;28;20044;-91
2022/04/26 14:09:19;;;;;;;6.43;2.28;;;22.40;45.80;;;;;;4991822;28;20042;-91
2022/04/26 14:11:48;;;;;;;8.52;2.25;;;22.40;45.80;;;;;;4991453;28;20048;-91
2022/04/26 14:22:32;;;;;;;8.13;2.65;;;22.50;45.60;;;;;;4991395;28;20054;-92
2022/04/26 14:25:09;;;;;;;7.82;3.00;;;22.40;45.10;;;;;;4975244;28;20066;-91
2022/04/26 14:27:39;;;;;;;7.82;2.67;;;22.40;44.80;;;;;;4991289;28;20046;-91
2022/04/26 14:30:07;;;;;;;8.18;2.83;;;22.30;44.30;;;;;;4992569;28;20440;-91
2022/04/26 14:32:32;;;;;;;7.75;2.92;;;22.20;44.60;;;;;;4974793;28;20030;-91
2022/04/26 14:34:58;;;;;;;8.43;2.85;;;22.20;46.00;;;;;;4975132;28;20052;-91
2022/04/26 14:37:24;;;;;;;9.70;2.58;;;22.20;44.90;;;;;;4974747;28;20145;-92
2022/04/26 14:39:50;;;;;;;7.78;2.35;;;22.20;44.30;;;;;;4990830;28;20049;-91
2022/04/26 14:42:17;;;;;;;8.18;2.75;;;22.20;44.20;;;;;;4991219;28;20399;-91
2022/04/26 14:44:43;;;;;;;5.72;2.50;;;22.10;43.70;;;;;;4991540;28;20326;-91
2022/04/26 14:47:09;;;;;;;7.45;2.47;;;22.20;43.30;;;;;;4991584;28;20088;-91
2022/04/26 14:49:35;;;;;;;8.32;2.83;;;22.20;43.10;;;;;;4990467;28;20074;-92
2022/04/26 14:52:01;;;;;;;7.60;2.47;;;22.10;42.90;;;;;;4990740;28;20084;-91
2022/04/26 14:54:28;;;;;;;6.60;2.30;;;22.10;43.10;;;;;;4990441;28;20042;-92
2022/04/26 14:56:53;;;;;;;6.95;2.55;;;22.00;43.40;;;;;;4971706;28;20038;-91
2022/04/26 14:59:20;;;;;;;7.75;2.85;;;21.80;43.70;;;;;;4986056;28;20053;-92
2022/04/26 15:01:48;;;;;;;8.18;2.70;;;21.70;43.60;;;;;;4967477;28;20038;-91
2022/04/26 15:04:21;;;;;;;7.10;2.70;;;21.60;44.20;;;;;;4986888;28;20435;-92
2022/04/26 15:06:47;;;;;;;9.40;2.80;;;21.60;43.70;;;;;;4996069;28;20121;-91
2022/04/26 15:17:27;;;;;;;6.75;2.58;;;21.50;43.40;;;;;;4997596;28;20128;-92
2022/04/26 15:19:53;;;;;;;6.03;2.30;;;21.30;44.00;;;;;;4999044;28;20121;-92
2022/04/26 15:22:19;;;;;;;7.05;2.45;;;21.30;44.60;;;;;;4984840;28;20041;-92
2022/04/26 15:24:48;;;;;;;7.85;2.55;;;21.20;44.50;;;;;;4981397;28;20598;-91
2022/04/26 15:27:15;;;;;;;5.88;2.30;;;21.30;44.90;;;;;;4982258;28;20048;-91
2022/04/26 15:29:42;;;;;;;5.90;2.30;;;21.20;44.90;;;;;;4982930;28;20558;-91
2022/04/26 15:32:08;;;;;;;6.75;2.28;;;21.20;44.50;;;;;;5000471;28;20037;-92
2022/04/26 15:34:34;;;;;;;8.60;2.40;;;21.10;43.70;;;;;;5025771;28;20030;-91
2022/04/26 15:37:00;;;;;;;6.97;2.45;;;21.00;43.50;;;;;;5005071;28;20092;-92
2022/04/26 15:39:26;;;;;;;7.05;2.33;;;20.90;43.70;;;;;;5017049;28;20535;-91
2022/04/26 15:41:52;;;;;;;8.52;2.58;;;20.80;43.60;;;;;;4979970;28;20062;-91
2022/04/26 15:44:18;;;;;;;7.80;2.35;;;20.80;43.30;;;;;;4964773;28;20088;-91
2022/04/26 15:46:45;;;;;;;7.35;2.20;;;20.70;43.90;;;;;;4979108;28;20521;-91
2022/04/26 15:49:11;;;;;;;8.00;2.40;;;20.60;44.30;;;;;;4962935;28;20109;-92
2022/04/26 15:51:37;;;;;;;7.60;2.38;;;20.50;44.00;;;;;;4965327;28;20488;-92
2022/04/26 15:54:03;;;;;;;7.82;2.70;;;20.40;44.90;;;;;;4962962;28;20122;-92
2022/04/26 15:56:29;;;;;;;6.72;2.40;;;20.40;44.90;;;;;;4964607;28;20138;-92
2022/04/26 15:58:54;;;;;;;8.73;2.67;;;20.30;45.30;;;;;;4980379;28;20121;-91
2022/04/26 16:01:20;;;;;;;7.85;2.50;;;20.20;45.30;;;;;;4961703;28;20054;-91
2022/04/26 16:03:45;;;;;;;7.75;2.60;;;20.10;45.80;;;;;;4982309;28;20100;-91
2022/04/26 16:06:11;;;;;;;8.48;2.80;;;20.00;46.10;;;;;;4967475;28;20038;-92
2022/04/26 16:08:37;;;;;;;8.20;2.72;;;19.90;46.50;;;;;;4983157;28;20120;-91
2022/04/26 16:22:01;;;;;;;8.82;2.70;;;19.40;47.50;;;;;;4987498;28;20054;-92
2022/04/26 16:24:26;;;;;;;8.93;2.70;;;19.40;49.40;;;;;;4966836;28;20409;-91
2022/04/26 16:26:52;;;;;;;8.18;2.97;;;19.40;49.20;;;;;;4967697;28;20045;-91
2022/04/26 16:29:18;;;;;;;7.43;3.00;;;19.40;49.20;;;;;;4967840;28;20046;-91
2022/04/26 16:31:44;;;;;;;8.98;3.13;;;19.20;49.30;;;;;;4980556;28;20054;-91
2022/04/26 16:34:09;;;;;;;8.10;2.90;;;19.10;49.80;;;;;;4968480;28;20030;-91
2022/04/26 16:36:36;;;;;;;7.82;3.10;;;19.00;49.90;;;;;;4966784;28;20033;-91
2022/04/26 16:39:03;;;;;;;8.75;2.92;;;18.90;49.90;;;;;;4968696;28;20038;-91
2022/04/26 16:41:30;;;;;;;8.40;2.70;;;18.80;49.70;;;;;;4994592;28;20461;-92
2022/04/26 16:43:55;;;;;;;7.90;2.90;;;18.80;50.70;;;;;;4984235;28;20046;-91
2022/04/26 16:46:22;;;;;;;8.10;2.53;;;18.70;50.40;;;;;;4984788;28;20427;-92
2022/04/26 16:48:48;;;;;;;7.30;2.88;;;18.60;50.40;;;;;;4982466;28;20042;-91
2022/04/26 16:51:15;;;;;;;10.32;4.25;;;18.60;50.50;;;;;;4981669;28;20046;-91
2022/04/26 16:53:42;;;;;;;8.90;2.58;;;18.50;49.80;;;;;;4967867;28;20046;-91
2022/04/26 16:56:08;;;;;;;8.55;2.65;;;18.40;50.10;;;;;;4965350;28;20528;-92
2022/04/26 16:58:34;;;;;;;7.22;2.58;;;18.30;50.10;;;;;;4982804;28;20065;-91
2022/04/26 17:00:59;;;;;;;7.88;2.95;;;18.20;50.00;;;;;;4983094;28;20076;-90
2022/04/26 17:03:25;;;;;;;10.20;2.70;;;18.00;50.20;;;;;;4981339;28;20064;-91
2022/04/26 17:05:50;;;;;;;8.77;3.22;;;17.90;50.20;;;;;;4966951;28;20081;-91
2022/04/26 17:08:18;;;;;;;7.45;2.97;;;17.90;50.70;;;;;;4982805;28;20053;-91
2022/04/26 17:10:45;;;;;;;8.27;2.80;;;17.80;51.00;;;;;;4996015;28;20521;-91
2022/04/26 17:13:12;;;;;;;9.60;2.95;;;17.70;51.10;;;;;;5009865;28;20061;-91